Wolfgang Berger im Turnier von 01.01.2019 bis 01.02.2019

Wolfgang Bergers Ergebnis

Rang 457.
Turnierpunkte 943
Gespielt : Gewonnen 100 : 59
Schneider 11
Bilanz 556:471

Wolfgang Bergers Bummerln

Zeit Gegner Ergebnis Ende
00:16:05 am 15.01.2019 Fabian Engl 2:7 normal
00:09:26 am 15.01.2019 *odo1230 2:7 autocontnormal
23:41:48 am 14.01.2019 Jürgen Mittenhuber 4:7 normal
23:30:44 am 14.01.2019 ,,Lenovo TAB 2 A10-70F 8:5 normal
23:25:36 am 14.01.2019 Joachim Rossmann 0:8 normal
23:18:57 am 14.01.2019 Christian 6:7 normal
23:01:49 am 14.01.2019 al-x111 2:8 normal
19:46:21 am 14.01.2019 Handlbauer 4:7 normal
19:43:55 am 14.01.2019 Markus Ecker 8:2 normal
19:38:46 am 14.01.2019 fff 7:2 normal
21:15:49 am 13.01.2019 LeihMax 3:7 normal
21:10:55 am 13.01.2019 Innviertler 7:2 normal
21:06:04 am 13.01.2019 Stopfa93 7:0 normal
19:54:12 am 13.01.2019 rokra 7:3 normal
19:41:00 am 13.01.2019 Speedy 7:5 normal
19:35:28 am 13.01.2019 godi 5:8 normal
19:28:59 am 13.01.2019 Roman Zechbrella 8:0 normal
19:26:03 am 13.01.2019 hans 9:0 normal
19:20:25 am 13.01.2019 Dave D 6:7 normal
19:14:12 am 13.01.2019 Marion 7:5 normal
19:34:41 am 12.01.2019 DELETED 5:7 normal
18:54:37 am 12.01.2019 Jasmin 9:0 normal
17:47:31 am 12.01.2019 Christian Altmüller 8:5 normal
21:04:10 am 11.01.2019 Lapi 7:5 normal
20:58:48 am 11.01.2019 holyblex1 3:9 normal
19:03:59 am 11.01.2019 fasaka 0:7 normal
19:00:22 am 11.01.2019 mathias 7:0 normal
18:56:18 am 11.01.2019 grete 7:5 normal
18:49:11 am 11.01.2019 Arthur 8:4 normal
18:44:08 am 11.01.2019 RaabS 7:4 normal
18:36:35 am 11.01.2019 Bianca 8:2 normal
18:31:29 am 11.01.2019 lisi 3:8 normal
17:24:15 am 09.01.2019 diePhille 7:5 normal
17:16:59 am 09.01.2019 vitrile 8:2 normal
17:14:57 am 09.01.2019 Manuel Radakovits 0:7 normal
17:09:27 am 09.01.2019 Cappo 7:1 normal
17:05:30 am 09.01.2019 FraRei 2:8 normal
16:15:34 am 09.01.2019 Janobi 7:0 normal
16:12:56 am 09.01.2019 niki 7:2 normal
16:09:53 am 09.01.2019 Punti 6:7 normal
16:03:31 am 09.01.2019 König Hans 9:2 normal
16:02:09 am 09.01.2019 *Luis Schinnerl - give-up
15:23:22 am 09.01.2019 Martin 5:7 normal
14:59:23 am 09.01.2019 AudiS3 4:7 normal
14:54:44 am 09.01.2019 Kloos Willy 8:4 normal
14:50:24 am 09.01.2019 *Zipferschlucker 7:3 autocontnormal
14:46:51 am 09.01.2019 morschi 8:3 normal
17:02:12 am 07.01.2019 Ben Cartwright 0:8 normal
16:58:49 am 07.01.2019 *Stefan Hutter - give-up
16:53:54 am 07.01.2019 grande punto 7:4 normal
19:45:35 am 06.01.2019 Alfred Fuchs 8:4 normal
19:42:14 am 06.01.2019 Friederike Haider 3:7 normal
18:38:27 am 06.01.2019 Lara Lucretia Reichart 7:5 normal
18:33:30 am 06.01.2019 Aron2013 7:1 normal
18:29:07 am 06.01.2019 SM-G955F 9:2 normal
18:27:19 am 06.01.2019 Hopfi 3:7 normal
18:25:08 am 06.01.2019 Frieda 7:0 normal
18:18:18 am 06.01.2019 Strudi 8:5 normal
17:22:25 am 06.01.2019 Hexilein 1:7 normal
17:17:47 am 06.01.2019 schnatte 7:4 normal
17:13:47 am 06.01.2019 andi 8:5 normal
19:25:18 am 05.01.2019 SEC 8:6 normal
19:13:52 am 05.01.2019 reini 1:8 normal
18:40:41 am 05.01.2019 Hr Heinz 0:8 normal
18:38:12 am 05.01.2019 Birgit 7:0 normal
18:30:58 am 05.01.2019 marcobode17 0:9 normal
21:19:42 am 04.01.2019 tiguan 8:2 normal
18:47:43 am 04.01.2019 DELETED 9:2 normal
16:46:25 am 04.01.2019 almi 3:7 normal
21:11:28 am 03.01.2019 Alex 1:8 normal
19:36:03 am 03.01.2019 SM-P605 1:8 normal
19:28:47 am 03.01.2019 Hubert Kargl 1:7 normal
19:11:58 am 03.01.2019 SM-G388F 0:9 normal
19:06:54 am 03.01.2019 ts115 9:0 normal
19:00:24 am 03.01.2019 Franz 7:5 normal
18:56:19 am 03.01.2019 Andi 7:5 normal
18:33:14 am 03.01.2019 Gerhard 7:3 normal
18:28:45 am 03.01.2019 littledrea 4:7 normal
18:15:01 am 03.01.2019 samsung SM-G920F 7:1 normal
18:12:11 am 03.01.2019 dobszai istvan 7:1 normal
18:09:04 am 03.01.2019 Habicher Christian 3:7 normal
19:14:05 am 02.01.2019 CörTom 4:7 normal
19:02:22 am 02.01.2019 Peter2000PeterPingist 7:4 normal
18:44:14 am 02.01.2019 dornman64 1:8 normal
18:38:05 am 02.01.2019 Droid 7:3 normal
18:30:40 am 02.01.2019 martschi 7:4 normal
18:03:38 am 02.01.2019 Nockapatzl 1:8 normal
17:59:09 am 02.01.2019 DELETED 9:2 normal
17:07:18 am 02.01.2019 aNoNameSchnopser 8:2 normal
17:04:05 am 02.01.2019 Xekcep 8:0 normal
16:55:55 am 02.01.2019 stifter 7:6 normal
21:11:01 am 01.01.2019 SM-G950F 8:6 normal
21:04:44 am 01.01.2019 Schurli 7:4 normal
21:02:43 am 01.01.2019 Markus iPhone 2:7 normal
20:55:55 am 01.01.2019 Erich 7:0 normal
19:46:26 am 01.01.2019 xxx 2:7 normal
17:48:11 am 01.01.2019 crisu 7:1 normal
17:43:56 am 01.01.2019 Strozi 8:1 normal
17:35:58 am 01.01.2019 DELETED 8:5 normal
17:06:25 am 01.01.2019 leni 6:7 normal